TAF KFAY
KFAY 270525Z 2706/2806 34005KT P6SM SKC FM271700 26006KT P6SM SCT150=
METAR KFAY
WC KFAY
WS KFAY
WV KFAY